Time;durP1;ratioP1;P1;durP2;ratioP2;P2;SDS_P1;SDS_P2;PMS_P1;PMS_P2;Temp;Humidity;BMP_temperature;BMP_pressure;BME280_temperature;BME280_humidity;BME280_pressure;Samples;Min_cycle;Max_cycle;Signal;HPM_P1;HPM_P2
2023/10/12 00:01:11;;;;;;;9.63;5.23;;;19.90;99.90;;;;;;5029697;28;20437;-64
2023/10/12 00:03:38;;;;;;;7.30;4.90;;;19.90;99.90;;;;;;5029002;28;20452;-64
2023/10/12 00:06:06;;;;;;;7.23;4.77;;;19.80;99.90;;;;;;5031285;28;20955;-64
2023/10/12 00:08:33;;;;;;;11.23;4.90;;;19.90;99.90;;;;;;5039014;28;20440;-63
2023/10/12 00:11:06;;;;;;;9.77;5.10;;;19.80;99.90;;;;;;5033599;28;20433;-64
2023/10/12 00:13:33;;;;;;;9.47;4.63;;;19.90;99.90;;;;;;5030654;28;20918;-64
2023/10/12 00:15:58;;;;;;;7.77;4.57;;;19.80;99.90;;;;;;5028453;28;20440;-64
2023/10/12 00:18:24;;;;;;;9.53;5.43;;;19.90;99.90;;;;;;5032675;28;20486;-64
2023/10/12 00:20:56;;;;;;;12.37;4.70;;;19.90;99.90;;;;;;5029022;28;20240;-64
2023/10/12 00:23:21;;;;;;;10.03;5.20;;;19.80;99.90;;;;;;5034892;28;20220;-64
2023/10/12 00:25:58;;;;;;;6.57;4.50;;;19.80;99.90;;;;;;5029752;28;20433;-64
2023/10/12 00:28:28;;;;;;;11.30;4.53;;;19.80;99.90;;;;;;5025158;28;20583;-64
2023/10/12 00:30:57;;;;;;;8.90;4.57;;;19.80;99.90;;;;;;5031071;28;20433;-64
2023/10/12 00:33:23;;;;;;;6.97;4.60;;;19.70;99.90;;;;;;5023029;28;20513;-64
2023/10/12 00:36:00;;;;;;;12.27;6.47;;;19.70;99.90;;;;;;5031104;28;20575;-64
2023/10/12 00:38:29;;;;;;;8.60;4.70;;;19.60;99.90;;;;;;5033252;28;20435;-63
2023/10/12 00:41:07;;;;;;;6.77;5.07;;;19.60;99.90;;;;;;5039357;28;20437;-64
2023/10/12 00:43:49;;;;;;;13.13;5.90;;;19.60;99.90;;;;;;5031374;28;20493;-64
2023/10/12 00:46:21;;;;;;;7.60;4.73;;;19.60;99.90;;;;;;5025445;28;20552;-64
2023/10/12 00:49:14;;;;;;;6.70;4.93;;;19.60;99.90;;;;;;5023168;28;20432;-64
2023/10/12 00:51:34;;;;;;;8.60;4.90;;;19.50;99.90;;;;;;5030505;28;20467;-64
2023/10/12 00:53:59;;;;;;;8.10;5.40;;;19.50;99.90;;;;;;5031273;28;21311;-64
2023/10/12 00:56:26;;;;;;;6.67;5.30;;;19.50;99.90;;;;;;5032624;28;20189;-64
2023/10/12 00:58:55;;;;;;;8.80;4.63;;;19.50;99.90;;;;;;5026652;28;20597;-64
2023/10/12 01:01:21;;;;;;;10.37;6.17;;;19.50;99.90;;;;;;5033496;28;20996;-64
2023/10/12 01:03:47;;;;;;;10.43;5.87;;;19.40;99.90;;;;;;5028534;28;20901;-64
2023/10/12 01:06:27;;;;;;;8.10;5.10;;;19.40;99.90;;;;;;5028326;28;20854;-64
2023/10/12 01:08:57;;;;;;;9.30;4.97;;;19.40;99.90;;;;;;5030465;28;21090;-65
2023/10/12 01:11:26;;;;;;;5.27;4.77;;;19.30;99.90;;;;;;5034696;28;20858;-64
2023/10/12 01:16:25;;;;;;;7.07;5.00;;;19.20;99.90;;;;;;5027057;28;20486;-64
2023/10/12 01:19:05;;;;;;;6.73;5.27;;;19.20;99.90;;;;;;5030435;28;20469;-64
2023/10/12 01:21:35;;;;;;;9.60;5.77;;;19.20;99.90;;;;;;5029471;28;21074;-65
2023/10/12 01:24:14;;;;;;;7.83;4.90;;;19.20;99.90;;;;;;5032133;28;20438;-64
2023/10/12 01:26:44;;;;;;;7.10;5.10;;;19.10;99.90;;;;;;5028778;28;20436;-64
2023/10/12 01:29:19;;;;;;;8.23;5.60;;;19.20;99.90;;;;;;5023941;28;20456;-64
2023/10/12 01:31:51;;;;;;;7.73;4.90;;;19.10;99.90;;;;;;5031085;28;20444;-65
2023/10/12 01:34:18;;;;;;;7.80;5.47;;;19.10;99.90;;;;;;5019920;28;20568;-64
2023/10/12 01:36:43;;;;;;;8.67;5.50;;;19.10;99.90;;;;;;5031432;28;20456;-64
2023/10/12 01:39:14;;;;;;;7.13;5.10;;;19.00;99.90;;;;;;5028720;28;20444;-64
2023/10/12 01:41:43;;;;;;;6.90;5.27;;;18.90;99.90;;;;;;5023348;28;20491;-65
2023/10/12 01:44:10;;;;;;;5.73;5.00;;;18.90;99.90;;;;;;5029077;28;20448;-64
2023/10/12 01:46:40;;;;;;;7.57;5.30;;;18.90;99.90;;;;;;5022885;28;20459;-64
2023/10/12 01:49:07;;;;;;;7.70;6.10;;;18.80;99.90;;;;;;5032054;28;21207;-64
2023/10/12 01:51:36;;;;;;;8.30;6.67;;;18.80;99.90;;;;;;5028668;28;20436;-64
2023/10/12 01:54:05;;;;;;;8.50;5.17;;;18.80;99.90;;;;;;5024298;28;21002;-64
2023/10/12 01:56:32;;;;;;;9.67;5.17;;;18.80;99.90;;;;;;5030371;28;20440;-64
2023/10/12 01:58:58;;;;;;;11.07;6.13;;;18.80;99.90;;;;;;5026292;28;20475;-65
2023/10/12 02:01:24;;;;;;;8.20;5.93;;;18.80;99.90;;;;;;5032916;28;20472;-64
2023/10/12 02:03:55;;;;;;;12.00;6.37;;;18.80;99.90;;;;;;5027723;28;20437;-65
2023/10/12 02:06:28;;;;;;;14.27;6.97;;;18.80;99.90;;;;;;5025927;28;20496;-63
2023/10/12 02:08:54;;;;;;;12.10;6.63;;;18.70;99.90;;;;;;5030023;28;20440;-63
2023/10/12 02:13:50;;;;;;;8.17;5.50;;;18.70;99.90;;;;;;5030097;28;20220;-64
2023/10/12 02:16:53;;;;;;;9.33;7.27;;;18.60;99.90;;;;;;5028225;28;20456;-64
2023/10/12 02:19:19;;;;;;;11.33;7.33;;;18.60;99.90;;;;;;5020755;28;20495;-64
2023/10/12 02:21:46;;;;;;;12.40;8.10;;;18.50;99.90;;;;;;5029144;28;21070;-63
2023/10/12 02:24:13;;;;;;;9.33;7.53;;;18.40;99.90;;;;;;5028271;28;20424;-63
2023/10/12 02:29:17;;;;;;;10.97;7.80;;;18.30;99.90;;;;;;5026701;28;20433;-64
2023/10/12 02:34:18;;;;;;;10.93;9.20;;;18.20;99.90;;;;;;5019035;28;21213;-63
2023/10/12 02:37:16;;;;;;;12.50;9.17;;;18.10;99.90;;;;;;5030812;28;21220;-64
2023/10/12 02:39:43;;;;;;;10.37;9.30;;;18.00;99.90;;;;;;5025364;28;21112;-63
2023/10/12 02:47:30;;;;;;;13.73;11.23;;;17.80;99.90;;;;;;5021953;28;20433;-61
2023/10/12 02:50:01;;;;;;;14.27;11.23;;;17.80;99.90;;;;;;5018248;28;20448;-63
2023/10/12 02:52:32;;;;;;;15.87;11.37;;;17.80;99.90;;;;;;5027554;28;20800;-64
2023/10/12 02:57:54;;;;;;;12.53;10.80;;;17.80;99.90;;;;;;5029906;28;20421;-63
2023/10/12 03:03:07;;;;;;;18.87;11.37;;;17.70;99.90;;;;;;5019476;28;20433;-63
2023/10/12 03:05:45;;;;;;;12.40;10.67;;;17.60;99.90;;;;;;5027157;28;20433;-65
2023/10/12 03:08:14;;;;;;;13.20;10.10;;;17.60;99.90;;;;;;5026169;28;20440;-64
2023/10/12 03:13:36;;;;;;;10.93;8.97;;;17.60;99.90;;;;;;5026370;28;20838;-64
2023/10/12 03:18:35;;;;;;;11.23;8.63;;;17.40;99.90;;;;;;5033032;28;20796;-64
2023/10/12 03:21:13;;;;;;;12.50;9.53;;;17.40;99.90;;;;;;5034759;28;20436;-64
2023/10/12 03:23:40;;;;;;;10.77;8.13;;;17.40;99.90;;;;;;5032044;28;20676;-64
2023/10/12 03:26:24;;;;;;;10.03;8.93;;;17.40;99.90;;;;;;5029896;28;20465;-64
2023/10/12 03:28:59;;;;;;;11.13;9.00;;;17.40;99.90;;;;;;5019285;28;20452;-65
2023/10/12 03:31:34;;;;;;;11.43;9.20;;;17.50;99.90;;;;;;5031541;28;20528;-64
2023/10/12 03:34:00;;;;;;;11.03;9.87;;;17.40;99.90;;;;;;5027760;28;20485;-64
2023/10/12 03:36:36;;;;;;;14.70;10.00;;;17.40;99.90;;;;;;5033413;28;20439;-63
2023/10/12 03:47:15;;;;;;;16.90;11.10;;;17.10;99.90;;;;;;5025761;28;20433;-64
2023/10/12 03:49:57;;;;;;;12.03;10.73;;;17.10;99.90;;;;;;5040039;28;20491;-64
2023/10/12 03:52:42;;;;;;;14.97;10.83;;;17.20;99.90;;;;;;5030804;28;20479;-63
2023/10/12 04:21:40;;;;;;;13.60;10.10;;;16.90;99.90;;;;;;5028590;28;21371;-64
2023/10/12 04:27:08;;;;;;;13.73;9.90;;;16.80;99.90;;;;;;5031789;28;21108;-64
2023/10/12 04:29:31;;;;;;;12.30;10.03;;;16.80;99.90;;;;;;5025326;28;20483;-64
2023/10/12 04:32:09;;;;;;;16.70;10.30;;;16.80;99.90;;;;;;5031511;28;20457;-64
2023/10/12 04:34:46;;;;;;;12.10;10.47;;;16.70;99.90;;;;;;5025956;28;20198;-64
2023/10/12 04:37:17;;;;;;;14.70;10.57;;;16.80;99.90;;;;;;5030761;28;20432;-64
2023/10/12 04:39:49;;;;;;;15.23;9.97;;;16.70;99.90;;;;;;5030601;28;20924;-64
2023/10/12 04:42:20;;;;;;;14.90;9.97;;;16.70;99.90;;;;;;5027980;28;20445;-64
2023/10/12 04:45:03;;;;;;;14.07;9.90;;;16.70;99.90;;;;;;5030674;28;20456;-64
2023/10/12 04:47:30;;;;;;;13.73;10.40;;;16.70;99.90;;;;;;5024503;28;20441;-64
2023/10/12 04:49:57;;;;;;;12.83;9.70;;;16.70;99.90;;;;;;5033247;28;20831;-64
2023/10/12 04:52:33;;;;;;;14.40;10.60;;;16.70;99.90;;;;;;5029080;28;20449;-64
2023/10/12 04:55:06;;;;;;;13.63;10.57;;;16.80;99.90;;;;;;5028061;28;20444;-64
2023/10/12 04:57:34;;;;;;;11.37;9.80;;;16.80;99.90;;;;;;5031973;28;20424;-64
2023/10/12 05:05:37;;;;;;;;;;;;;;;;;;;;;
2023/10/12 05:13:10;;;;;;;12.83;10.60;;;16.70;99.90;;;;;;5029211;28;20477;-65
2023/10/12 05:15:40;;;;;;;12.40;10.03;;;16.70;99.90;;;;;;5033506;28;20194;-64
2023/10/12 05:18:07;;;;;;;11.90;9.43;;;16.70;99.90;;;;;;5024336;28;20793;-64
2023/10/12 05:20:33;;;;;;;14.90;9.60;;;16.60;99.90;;;;;;5027064;28;20935;-64
2023/10/12 05:22:59;;;;;;;13.97;9.70;;;16.60;99.90;;;;;;5031077;28;20528;-64
2023/10/12 05:25:33;;;;;;;14.30;9.73;;;16.50;99.90;;;;;;5028888;28;20515;-63
2023/10/12 05:28:13;;;;;;;12.63;9.47;;;16.60;99.90;;;;;;5031752;28;20187;-64
2023/10/12 05:30:47;;;;;;;12.23;9.10;;;16.60;99.90;;;;;;5029408;28;20613;-64
2023/10/12 05:33:28;;;;;;;13.67;10.57;;;16.50;99.90;;;;;;5020431;28;20477;-63
2023/10/12 05:35:57;;;;;;;14.20;9.63;;;16.40;99.90;;;;;;5024712;28;20440;-64
2023/10/12 05:38:34;;;;;;;16.83;10.70;;;16.40;99.90;;;;;;5029650;28;20892;-64
2023/10/12 05:41:00;;;;;;;10.93;9.83;;;16.40;99.90;;;;;;5025148;28;20959;-64
2023/10/12 05:43:30;;;;;;;11.63;8.90;;;16.40;99.90;;;;;;5031529;28;20467;-65
2023/10/12 05:46:01;;;;;;;14.43;10.33;;;16.40;99.90;;;;;;5024920;28;20548;-63
2023/10/12 05:48:27;;;;;;;13.77;10.23;;;16.50;99.90;;;;;;5030446;28;20440;-64
2023/10/12 05:50:53;;;;;;;14.07;9.63;;;16.50;99.90;;;;;;5028773;28;20437;-64
2023/10/12 05:53:20;;;;;;;12.43;9.40;;;16.40;99.90;;;;;;5026241;28;21222;-64
2023/10/12 05:55:47;;;;;;;10.00;8.40;;;16.40;99.90;;;;;;5029772;28;20523;-64
2023/10/12 05:58:15;;;;;;;13.17;9.23;;;16.40;99.90;;;;;;5028586;28;20433;-64
2023/10/12 06:00:52;;;;;;;12.03;9.20;;;16.40;99.90;;;;;;5029378;28;20543;-64
2023/10/12 06:03:20;;;;;;;10.97;9.83;;;16.40;99.90;;;;;;5028263;28;20516;-64
2023/10/12 06:05:48;;;;;;;10.20;8.40;;;16.40;99.90;;;;;;5029369;28;20494;-64
2023/10/12 06:08:16;;;;;;;12.00;9.57;;;16.40;99.90;;;;;;5026702;28;20436;-64
2023/10/12 06:10:42;;;;;;;16.00;9.87;;;16.50;99.90;;;;;;5025868;28;20536;-64
2023/10/12 06:13:14;;;;;;;13.40;10.37;;;16.50;99.90;;;;;;5023170;28;20473;-64
2023/10/12 06:15:42;;;;;;;17.00;9.23;;;16.50;99.90;;;;;;5033685;28;20448;-64
2023/10/12 06:18:21;;;;;;;9.67;8.27;;;16.50;99.90;;;;;;5029354;28;20437;-64
2023/10/12 06:20:59;;;;;;;12.73;9.90;;;16.50;99.90;;;;;;5020186;28;20437;-64
2023/10/12 06:23:26;;;;;;;11.73;7.93;;;16.50;99.90;;;;;;5031613;28;20432;-64
2023/10/12 06:25:51;;;;;;;9.63;8.23;;;16.50;99.90;;;;;;5028304;28;20429;-64
2023/10/12 06:28:17;;;;;;;11.03;8.30;;;16.60;99.90;;;;;;5020996;28;21273;-64
2023/10/12 06:30:47;;;;;;;12.70;8.00;;;16.60;99.90;;;;;;5029597;28;20205;-65
2023/10/12 06:33:17;;;;;;;10.17;7.40;;;16.60;99.90;;;;;;5018947;28;20587;-64
2023/10/12 06:36:00;;;;;;;10.97;8.73;;;16.60;99.90;;;;;;5022132;28;20512;-64
2023/10/12 06:46:46;;;;;;;11.87;8.60;;;16.40;99.90;;;;;;5015095;28;20441;-64
2023/10/12 06:49:21;;;;;;;11.10;9.03;;;16.40;99.90;;;;;;5033780;28;20437;-64
2023/10/12 06:51:54;;;;;;;14.00;9.73;;;16.50;99.90;;;;;;5032376;28;20874;-63
2023/10/12 06:54:39;;;;;;;12.83;8.93;;;16.40;99.90;;;;;;5028535;28;20990;-65
2023/10/12 06:59:52;;;;;;;10.30;9.00;;;16.40;99.90;;;;;;5031726;28;20960;-64
2023/10/12 07:02:22;;;;;;;11.17;8.23;;;16.40;99.90;;;;;;5036499;28;20443;-64
2023/10/12 07:04:53;;;;;;;11.13;9.13;;;16.40;99.90;;;;;;5032580;28;20477;-65
2023/10/12 07:07:41;;;;;;;9.93;8.50;;;16.40;99.90;;;;;;5029899;28;20440;-64
2023/10/12 07:12:47;;;;;;;12.13;9.17;;;16.40;99.90;;;;;;5031430;28;20507;-64
2023/10/12 07:15:21;;;;;;;12.43;8.70;;;16.40;99.90;;;;;;5036134;28;20432;-65
2023/10/12 07:17:50;;;;;;;9.13;8.03;;;16.30;99.90;;;;;;5032696;28;20888;-64
2023/10/12 07:22:56;;;;;;;11.77;7.17;;;16.40;99.90;;;;;;5033782;28;20428;-64
2023/10/12 07:25:26;;;;;;;11.07;7.80;;;16.40;99.90;;;;;;5027175;28;20478;-67
2023/10/12 07:28:01;;;;;;;9.63;8.63;;;16.40;99.90;;;;;;5034720;28;20292;-64
2023/10/12 07:33:07;;;;;;;10.10;7.83;;;16.40;99.90;;;;;;5025003;28;20476;-64
2023/10/12 07:35:36;;;;;;;8.63;7.80;;;16.30;99.90;;;;;;5031547;28;20866;-65
2023/10/12 07:38:14;;;;;;;12.80;8.40;;;16.40;99.90;;;;;;5031723;28;20969;-65
2023/10/12 07:40:56;;;;;;;13.53;8.77;;;16.40;99.90;;;;;;5026459;28;21026;-65
2023/10/12 07:43:25;;;;;;;12.27;8.90;;;16.40;99.90;;;;;;5029387;28;20467;-64
2023/10/12 07:45:54;;;;;;;9.57;8.00;;;16.40;99.90;;;;;;5027186;28;21281;-64
2023/10/12 07:49:22;;;;;;;16.17;8.90;;;16.40;99.90;;;;;;5033097;28;20447;-64
2023/10/12 07:51:16;;;;;;;10.00;8.03;;;16.30;99.90;;;;;;5029564;28;20841;-64
2023/10/12 07:53:57;;;;;;;12.73;8.67;;;16.40;99.90;;;;;;5018628;28;20564;-65
2023/10/12 07:56:24;;;;;;;14.00;7.80;;;16.40;99.90;;;;;;5031114;28;21063;-64
2023/10/12 07:58:57;;;;;;;15.13;8.97;;;16.40;99.90;;;;;;5028236;28;20441;-65
2023/10/12 08:03:59;;;;;;;10.77;8.60;;;16.40;99.90;;;;;;5031325;28;20962;-65
2023/10/12 08:11:46;;;;;;;11.23;8.63;;;16.50;99.90;;;;;;5028188;28;20445;-64
2023/10/12 08:20:12;;;;;;;13.20;8.40;;;16.60;99.90;;;;;;5017303;28;20493;-64
2023/10/12 08:22:38;;;;;;;13.30;8.27;;;16.50;99.90;;;;;;5024962;28;20560;-65
2023/10/12 08:25:04;;;;;;;11.83;8.00;;;16.50;99.90;;;;;;5030665;28;20519;-64
2023/10/12 08:27:43;;;;;;;12.27;9.60;;;16.50;99.90;;;;;;5024895;28;20784;-65
2023/10/12 08:30:13;;;;;;;10.70;8.50;;;16.60;99.90;;;;;;5031574;28;20439;-64
2023/10/12 08:32:55;;;;;;;9.90;8.00;;;16.60;99.90;;;;;;5025920;28;20979;-65
2023/10/12 08:36:10;;;;;;;9.20;8.20;;;16.50;99.90;;;;;;5028697;28;20535;-65
2023/10/12 08:38:40;;;;;;;9.87;8.33;;;16.60;99.90;;;;;;5031157;28;20451;-65
2023/10/12 08:43:47;;;;;;;14.77;8.47;;;16.60;99.90;;;;;;5031943;28;20822;-65
2023/10/12 08:46:20;;;;;;;10.83;7.80;;;16.60;99.90;;;;;;5025648;28;20791;-64
2023/10/12 08:49:05;;;;;;;9.33;8.13;;;16.60;99.90;;;;;;5040540;28;20433;-65
2023/10/12 08:51:33;;;;;;;14.03;8.93;;;16.60;99.90;;;;;;5029278;28;20439;-65
2023/10/12 08:54:01;;;;;;;13.40;8.53;;;16.70;99.90;;;;;;5027509;28;20511;-63
2023/10/12 08:56:32;;;;;;;10.90;7.70;;;16.70;99.90;;;;;;5032606;28;20428;-65
2023/10/12 08:59:05;;;;;;;10.10;6.63;;;16.70;99.90;;;;;;5029968;28;20477;-65
2023/10/12 09:01:35;;;;;;;10.73;7.20;;;16.80;99.90;;;;;;5025790;28;21333;-65
2023/10/12 09:04:12;;;;;;;15.27;7.90;;;16.70;99.90;;;;;;5031759;28;20440;-64
2023/10/12 09:09:10;;;;;;;13.17;7.83;;;16.80;99.90;;;;;;5026389;28;20516;-65
2023/10/12 09:11:36;;;;;;;10.07;7.73;;;16.80;99.90;;;;;;5024735;28;20437;-65
2023/10/12 09:14:16;;;;;;;11.70;7.80;;;16.80;99.90;;;;;;5027613;28;20214;-64
2023/10/12 09:16:43;;;;;;;14.10;8.10;;;16.80;99.90;;;;;;5024864;28;21248;-64
2023/10/12 09:19:28;;;;;;;13.40;8.63;;;16.80;99.90;;;;;;5027773;28;20437;-65
2023/10/12 09:21:59;;;;;;;11.10;7.07;;;16.80;99.90;;;;;;5030397;28;20443;-64
2023/10/12 09:24:28;;;;;;;11.60;7.50;;;16.80;99.90;;;;;;5028124;28;20568;-65
2023/10/12 09:26:59;;;;;;;8.83;6.70;;;16.90;99.90;;;;;;5024148;28;20576;-65
2023/10/12 09:29:28;;;;;;;12.03;7.70;;;16.90;99.90;;;;;;5022305;28;20433;-64
2023/10/12 09:35:10;;;;;;;10.40;7.80;;;16.90;99.90;;;;;;5039377;28;20444;-65
2023/10/12 09:37:51;;;;;;;10.43;7.73;;;16.90;99.90;;;;;;5040517;28;20440;-65
2023/10/12 09:40:35;;;;;;;13.10;7.93;;;16.90;99.90;;;;;;5025638;28;20452;-64
2023/10/12 09:43:06;;;;;;;15.80;8.53;;;16.90;99.90;;;;;;5031835;28;20933;-65
2023/10/12 09:45:45;;;;;;;10.10;6.93;;;16.90;99.90;;;;;;5025959;28;20524;-64
2023/10/12 09:48:18;;;;;;;11.00;7.87;;;17.00;99.90;;;;;;5026357;28;20442;-65
2023/10/12 09:50:47;;;;;;;12.73;7.03;;;17.00;99.90;;;;;;5027098;28;20455;-65
2023/10/12 09:53:26;;;;;;;8.57;7.20;;;17.00;99.90;;;;;;5027696;28;20950;-65
2023/10/12 09:56:15;;;;;;;11.90;7.43;;;17.10;99.90;;;;;;5029150;28;20922;-64
2023/10/12 09:59:29;;;;;;;13.30;7.30;;;17.10;99.90;;;;;;5020453;28;20495;-65
2023/10/12 10:07:25;;;;;;;15.87;7.60;;;17.30;99.90;;;;;;5024444;28;21096;-64
2023/10/12 10:10:00;;;;;;;10.47;7.13;;;17.40;99.90;;;;;;5037110;28;20947;-65
2023/10/12 10:12:35;;;;;;;11.37;7.93;;;17.50;99.90;;;;;;5026346;28;21326;-64
2023/10/12 10:15:21;;;;;;;13.03;7.73;;;17.50;99.90;;;;;;5024181;28;20487;-65
2023/10/12 10:17:53;;;;;;;10.97;7.83;;;17.50;99.90;;;;;;5029599;28;20429;-64
2023/10/12 10:23:10;;;;;;;17.73;7.80;;;17.60;99.90;;;;;;5030166;28;20425;-64
2023/10/12 10:25:46;;;;;;;15.00;7.67;;;17.50;99.90;;;;;;5027492;28;20602;-64
2023/10/12 10:28:32;;;;;;;11.27;6.30;;;17.50;99.90;;;;;;5022697;28;20440;-64
2023/10/12 10:31:01;;;;;;;12.43;7.70;;;17.50;99.90;;;;;;5029568;28;20943;-64
2023/10/12 10:33:28;;;;;;;12.47;7.37;;;17.60;99.90;;;;;;5019276;28;20488;-64
2023/10/12 10:35:56;;;;;;;9.60;6.50;;;17.60;99.90;;;;;;5036163;28;20456;-64
2023/10/12 10:38:32;;;;;;;13.83;7.73;;;17.60;99.90;;;;;;5030218;28;20451;-64
2023/10/12 10:41:05;;;;;;;14.67;7.47;;;17.60;99.90;;;;;;5024149;28;20539;-65
2023/10/12 10:43:39;;;;;;;11.63;7.97;;;17.60;99.90;;;;;;5030430;28;20440;-65
2023/10/12 10:46:13;;;;;;;11.30;7.73;;;17.60;99.90;;;;;;5023277;28;20955;-65
2023/10/12 10:48:49;;;;;;;9.60;7.57;;;17.60;99.90;;;;;;5030666;28;20439;-64
2023/10/12 10:51:19;;;;;;;12.80;7.70;;;17.60;99.90;;;;;;5030794;28;20640;-64
2023/10/12 10:53:53;;;;;;;8.87;6.97;;;17.60;99.90;;;;;;5024072;28;21241;-64
2023/10/12 10:56:38;;;;;;;10.93;7.00;;;17.70;99.90;;;;;;5018191;28;21352;-64
2023/10/12 10:59:11;;;;;;;10.00;7.30;;;17.70;99.90;;;;;;5027490;28;20428;-65
2023/10/12 11:01:40;;;;;;;16.47;7.63;;;17.70;99.90;;;;;;5023004;28;20437;-65
2023/10/12 11:04:17;;;;;;;13.23;8.33;;;17.80;99.90;;;;;;5029980;28;20432;-64
2023/10/12 11:06:49;;;;;;;9.83;7.53;;;17.90;99.90;;;;;;5016984;28;20955;-64
2023/10/12 11:09:16;;;;;;;13.43;7.07;;;17.80;99.90;;;;;;5025918;28;20424;-64
2023/10/12 11:11:53;;;;;;;10.50;8.10;;;17.80;99.90;;;;;;5031474;28;20462;-64
2023/10/12 11:14:22;;;;;;;11.70;7.80;;;17.80;99.90;;;;;;5025298;28;20505;-65
2023/10/12 11:16:48;;;;;;;10.00;8.00;;;17.80;99.90;;;;;;5029093;28;20518;-64
2023/10/12 11:19:18;;;;;;;9.23;6.70;;;17.80;99.90;;;;;;5026201;28;20420;-65
2023/10/12 11:21:57;;;;;;;11.40;7.40;;;17.80;99.90;;;;;;5028591;28;20512;-65
2023/10/12 11:24:23;;;;;;;10.43;7.20;;;17.80;99.90;;;;;;5027466;28;20433;-64
2023/10/12 11:26:51;;;;;;;15.63;7.43;;;17.80;99.90;;;;;;5029419;28;20422;-64
2023/10/12 11:29:17;;;;;;;7.63;5.93;;;17.80;99.90;;;;;;5021695;28;20520;-64
2023/10/12 11:32:03;;;;;;;15.73;7.50;;;17.80;99.90;;;;;;5031454;28;20429;-65
2023/10/12 11:34:33;;;;;;;12.23;8.07;;;17.80;99.90;;;;;;5019502;28;20461;-64
2023/10/12 11:36:59;;;;;;;9.90;7.43;;;17.80;99.90;;;;;;5032224;28;21170;-64
2023/10/12 11:39:28;;;;;;;14.13;8.47;;;17.80;99.90;;;;;;5031924;28;20435;-64
2023/10/12 11:42:13;;;;;;;12.17;7.47;;;17.80;99.90;;;;;;5029204;28;20540;-64
2023/10/12 11:44:42;;;;;;;13.70;7.40;;;17.80;99.90;;;;;;5032224;28;20429;-64
2023/10/12 11:47:10;;;;;;;11.47;7.37;;;17.80;99.90;;;;;;5024817;28;20433;-64
2023/10/12 11:49:56;;;;;;;12.03;7.20;;;17.80;99.90;;;;;;5036195;28;20464;-65
2023/10/12 11:52:30;;;;;;;8.53;6.50;;;17.80;99.90;;;;;;5025967;28;20425;-65
2023/10/12 11:55:21;;;;;;;12.30;6.87;;;17.80;99.90;;;;;;5029254;28;20429;-64
2023/10/12 11:57:49;;;;;;;9.97;7.60;;;17.80;99.90;;;;;;5033239;28;20429;-64
2023/10/12 12:00:21;;;;;;;12.00;7.47;;;17.90;99.90;;;;;;5025484;28;20886;-64
2023/10/12 12:02:57;;;;;;;11.50;7.00;;;17.90;99.90;;;;;;5021575;28;20915;-65
2023/10/12 12:05:33;;;;;;;8.50;7.60;;;17.90;99.90;;;;;;5031597;28;20781;-65
2023/10/12 12:08:05;;;;;;;12.77;8.27;;;17.90;99.90;;;;;;5027556;28;20532;-64
2023/10/12 12:13:42;;;;;;;12.00;8.50;;;17.90;99.90;;;;;;5034933;28;21091;-65
2023/10/12 12:16:08;;;;;;;12.57;9.07;;;18.00;99.90;;;;;;5031725;28;20461;-64
2023/10/12 12:18:34;;;;;;;11.90;7.60;;;17.90;99.90;;;;;;5032229;28;20483;-64
2023/10/12 12:21:03;;;;;;;10.13;7.90;;;17.90;99.90;;;;;;5028487;28;20433;-64
2023/10/12 12:23:34;;;;;;;11.63;7.83;;;17.90;99.90;;;;;;5034249;28;20185;-65
2023/10/12 12:26:07;;;;;;;10.83;8.73;;;17.90;99.90;;;;;;5029438;28;20870;-64
2023/10/12 12:28:33;;;;;;;11.00;8.57;;;17.90;99.90;;;;;;5033051;28;20520;-65
2023/10/12 12:31:04;;;;;;;10.37;8.33;;;17.80;99.90;;;;;;5024505;28;20426;-64
2023/10/12 12:33:30;;;;;;;8.93;8.03;;;17.80;99.90;;;;;;5021444;28;20536;-65
2023/10/12 12:36:07;;;;;;;10.93;8.73;;;17.80;99.90;;;;;;5031563;28;20429;-64
2023/10/12 12:41:00;;;;;;;13.17;9.30;;;17.80;99.90;;;;;;5025843;28;20431;-65
2023/10/12 12:43:26;;;;;;;10.37;9.07;;;17.80;99.90;;;;;;5033697;28;20213;-64
2023/10/12 12:45:52;;;;;;;11.60;8.93;;;17.80;99.90;;;;;;5024193;28;20421;-64
2023/10/12 12:48:21;;;;;;;11.63;8.77;;;17.80;99.90;;;;;;5032320;28;20424;-64
2023/10/12 12:50:49;;;;;;;10.20;9.10;;;17.80;99.90;;;;;;5028657;28;20990;-64
2023/10/12 12:53:18;;;;;;;11.47;9.30;;;17.80;99.90;;;;;;5028079;28;20470;-65
2023/10/12 12:55:46;;;;;;;19.17;9.00;;;17.90;99.90;;;;;;5026564;28;20472;-65
2023/10/12 12:58:17;;;;;;;11.70;8.87;;;17.90;99.90;;;;;;5025108;28;21026;-65
2023/10/12 13:00:46;;;;;;;18.10;11.00;;;17.90;99.90;;;;;;5028267;28;20459;-65
2023/10/12 13:03:14;;;;;;;11.20;9.60;;;17.90;99.90;;;;;;5030127;28;20433;-65
2023/10/12 13:05:40;;;;;;;11.47;9.60;;;17.90;99.90;;;;;;5030299;28;20517;-64
2023/10/12 13:08:07;;;;;;;13.17;10.07;;;18.00;99.90;;;;;;5034914;28;20420;-65
2023/10/12 13:10:37;;;;;;;10.70;9.50;;;18.00;99.90;;;;;;5032274;28;20177;-65
2023/10/12 13:13:03;;;;;;;12.40;8.30;;;18.00;99.90;;;;;;5028227;28;21325;-64
2023/10/12 13:15:31;;;;;;;12.83;8.70;;;18.00;99.90;;;;;;5033931;28;20425;-64
2023/10/12 13:17:58;;;;;;;10.77;9.60;;;18.00;99.90;;;;;;5029006;28;20426;-64
2023/10/12 13:20:29;;;;;;;14.80;10.20;;;18.00;99.90;;;;;;5032684;23;20494;-72
2023/10/12 13:22:57;;;;;;;9.83;8.83;;;18.00;99.90;;;;;;5005383;28;20449;-71
2023/10/12 13:25:26;;;;;;;9.77;8.50;;;18.00;99.90;;;;;;5021970;28;20917;-71
2023/10/12 13:27:52;;;;;;;10.13;8.93;;;18.00;99.90;;;;;;5019139;28;20426;-71
2023/10/12 13:30:18;;;;;;;11.00;7.53;;;18.00;99.90;;;;;;5020769;28;20497;-72
2023/10/12 13:32:47;;;;;;;11.57;10.37;;;18.00;99.90;;;;;;5028270;28;20512;-71
2023/10/12 13:35:31;;;;;;;13.03;9.80;;;18.00;99.90;;;;;;5018046;28;20469;-72
2023/10/12 13:38:04;;;;;;;11.47;8.37;;;18.00;99.90;;;;;;5016648;28;20442;-71
2023/10/12 13:40:30;;;;;;;16.37;9.10;;;18.00;99.90;;;;;;5025781;28;20420;-71
2023/10/12 13:43:14;;;;;;;15.13;8.83;;;18.00;99.90;;;;;;5007100;28;20961;-72
2023/10/12 13:45:47;;;;;;;9.10;8.17;;;17.90;99.90;;;;;;5012764;28;20458;-71
2023/10/12 13:48:22;;;;;;;14.17;9.43;;;17.90;99.90;;;;;;5023306;28;20488;-71
2023/10/12 13:51:08;;;;;;;12.53;8.80;;;17.90;99.90;;;;;;5012961;28;20532;-71
2023/10/12 13:53:38;;;;;;;11.37;8.73;;;17.90;99.90;;;;;;5025002;28;20468;-72
2023/10/12 13:56:08;;;;;;;11.53;9.37;;;17.90;99.90;;;;;;5017969;28;20898;-71
2023/10/12 13:58:41;;;;;;;12.23;9.20;;;17.90;99.90;;;;;;5021352;28;20780;-71
2023/10/12 14:01:18;;;;;;;9.03;8.00;;;17.90;99.90;;;;;;5022407;28;20409;-71
2023/10/12 14:03:45;;;;;;;12.17;8.33;;;17.90;99.90;;;;;;5013720;28;20437;-72
2023/10/12 14:06:12;;;;;;;9.70;8.00;;;17.90;99.90;;;;;;5021008;28;20444;-71
2023/10/12 14:08:41;;;;;;;8.90;7.80;;;17.90;99.90;;;;;;5020728;28;20500;-71
2023/10/12 14:11:12;;;;;;;9.00;7.47;;;17.90;99.90;;;;;;5024005;28;20479;-71
2023/10/12 14:13:38;;;;;;;10.53;8.73;;;18.00;99.90;;;;;;5018942;28;21059;-71
2023/10/12 14:16:08;;;;;;;12.73;9.57;;;18.00;99.90;;;;;;5022654;28;20417;-70
2023/10/12 14:18:33;;;;;;;10.33;8.60;;;18.00;99.90;;;;;;5018263;28;20460;-71
2023/10/12 14:20:59;;;;;;;12.67;8.43;;;18.00;99.90;;;;;;5021832;28;20460;-71
2023/10/12 14:23:26;;;;;;;11.00;9.20;;;17.90;99.90;;;;;;5022847;28;20240;-71
2023/10/12 14:25:54;;;;;;;11.37;8.90;;;18.00;99.90;;;;;;5020076;28;20212;-71
2023/10/12 14:28:21;;;;;;;11.30;8.97;;;18.00;99.90;;;;;;5020215;28;20460;-71
2023/10/12 14:30:50;;;;;;;13.23;8.80;;;17.90;99.90;;;;;;5018452;28;20425;-70
2023/10/12 14:33:19;;;;;;;10.03;8.63;;;17.90;99.90;;;;;;5018385;28;20516;-71
2023/10/12 14:35:46;;;;;;;10.30;8.60;;;17.90;99.90;;;;;;5019133;28;20410;-71
2023/10/12 14:38:16;;;;;;;10.80;8.00;;;17.80;99.90;;;;;;5020261;28;20441;-70
2023/10/12 14:40:43;;;;;;;10.90;8.40;;;17.90;99.90;;;;;;5012061;28;20413;-71
2023/10/12 14:43:14;;;;;;;10.60;7.30;;;17.90;99.90;;;;;;5018022;28;20430;-71
2023/10/12 14:45:44;;;;;;;9.10;7.90;;;17.90;99.90;;;;;;5003322;28;20532;-71
2023/10/12 14:48:11;;;;;;;11.80;8.53;;;17.90;99.90;;;;;;5004146;28;20425;-72
2023/10/12 14:50:38;;;;;;;9.90;8.40;;;17.90;99.90;;;;;;5020118;28;20472;-71
2023/10/12 14:53:05;;;;;;;10.60;8.77;;;17.90;99.90;;;;;;5017002;28;20877;-71
2023/10/12 14:55:31;;;;;;;14.30;8.70;;;17.90;99.90;;;;;;5022010;28;20422;-71
2023/10/12 14:57:57;;;;;;;13.60;8.23;;;17.80;99.90;;;;;;5019040;28;20402;-70
2023/10/12 15:00:23;;;;;;;12.73;9.03;;;17.80;99.90;;;;;;5020674;28;20424;-71
2023/10/12 15:02:50;;;;;;;10.00;8.10;;;17.80;99.90;;;;;;5017354;28;20258;-70
2023/10/12 15:05:16;;;;;;;12.00;8.30;;;17.80;99.90;;;;;;5020497;28;20190;-71
2023/10/12 15:07:42;;;;;;;12.00;8.60;;;17.80;99.90;;;;;;5022967;28;21121;-70
2023/10/12 15:10:08;;;;;;;14.87;9.67;;;17.80;99.90;;;;;;5021011;28;20181;-70
2023/10/12 15:12:34;;;;;;;11.00;8.47;;;17.80;99.90;;;;;;5024610;28;20972;-71